sensor_id;sensor_type;location;lat;lon;timestamp;temperature;humidity
16102;DHT22;56411;52.964;10.540;2022-10-31T00:00:14;9.90;99.90
16102;DHT22;56411;52.964;10.540;2022-10-31T00:02:41;9.90;99.90
16102;DHT22;56411;52.964;10.540;2022-10-31T00:05:08;10.00;99.90
16102;DHT22;56411;52.964;10.540;2022-10-31T00:07:35;10.00;99.90
16102;DHT22;56411;52.964;10.540;2022-10-31T00:10:04;10.00;99.90
16102;DHT22;56411;52.964;10.540;2022-10-31T00:12:31;10.00;99.90
16102;DHT22;56411;52.964;10.540;2022-10-31T00:14:58;10.00;99.90
16102;DHT22;56411;52.964;10.540;2022-10-31T00:17:25;9.90;99.90
16102;DHT22;56411;52.964;10.540;2022-10-31T00:19:52;9.90;99.90
16102;DHT22;56411;52.964;10.540;2022-10-31T00:22:19;9.80;99.90
16102;DHT22;56411;52.964;10.540;2022-10-31T00:24:46;9.80;99.90
16102;DHT22;56411;52.964;10.540;2022-10-31T00:27:14;9.70;99.90
16102;DHT22;56411;52.964;10.540;2022-10-31T00:29:41;9.70;99.90
16102;DHT22;56411;52.964;10.540;2022-10-31T00:32:07;9.60;99.90
16102;DHT22;56411;52.964;10.540;2022-10-31T00:34:35;9.70;99.90
16102;DHT22;56411;52.964;10.540;2022-10-31T00:37:01;9.70;99.90
16102;DHT22;56411;52.964;10.540;2022-10-31T00:39:28;9.70;99.90
16102;DHT22;56411;52.964;10.540;2022-10-31T00:41:55;9.70;99.90
16102;DHT22;56411;52.964;10.540;2022-10-31T00:44:23;9.90;99.90
16102;DHT22;56411;52.964;10.540;2022-10-31T00:46:53;9.90;99.90
16102;DHT22;56411;52.964;10.540;2022-10-31T00:49:20;9.80;99.90
16102;DHT22;56411;52.964;10.540;2022-10-31T00:51:47;9.80;99.90
16102;DHT22;56411;52.964;10.540;2022-10-31T00:54:14;9.80;99.90
16102;DHT22;56411;52.964;10.540;2022-10-31T00:56:41;9.70;99.90
16102;DHT22;56411;52.964;10.540;2022-10-31T00:59:07;9.70;99.90
16102;DHT22;56411;52.964;10.540;2022-10-31T01:01:36;9.60;99.90
16102;DHT22;56411;52.964;10.540;2022-10-31T01:04:03;9.60;99.90
16102;DHT22;56411;52.964;10.540;2022-10-31T01:06:30;9.60;99.90
16102;DHT22;56411;52.964;10.540;2022-10-31T01:08:57;9.60;99.90
16102;DHT22;56411;52.964;10.540;2022-10-31T01:11:24;9.50;99.90
16102;DHT22;56411;52.964;10.540;2022-10-31T01:13:52;9.50;99.90
16102;DHT22;56411;52.964;10.540;2022-10-31T01:16:21;9.50;99.90
16102;DHT22;56411;52.964;10.540;2022-10-31T01:18:50;9.50;99.90
16102;DHT22;56411;52.964;10.540;2022-10-31T01:21:18;9.40;99.90
16102;DHT22;56411;52.964;10.540;2022-10-31T01:23:45;9.40;99.90
16102;DHT22;56411;52.964;10.540;2022-10-31T01:26:14;9.40;99.90
16102;DHT22;56411;52.964;10.540;2022-10-31T01:28:44;9.40;99.90
16102;DHT22;56411;52.964;10.540;2022-10-31T01:31:11;9.40;99.90
16102;DHT22;56411;52.964;10.540;2022-10-31T01:33:38;9.40;99.90
16102;DHT22;56411;52.964;10.540;2022-10-31T01:36:18;9.30;99.90
16102;DHT22;56411;52.964;10.540;2022-10-31T01:38:45;9.30;99.90
16102;DHT22;56411;52.964;10.540;2022-10-31T01:41:15;9.40;99.90
16102;DHT22;56411;52.964;10.540;2022-10-31T01:43:45;9.40;99.90
16102;DHT22;56411;52.964;10.540;2022-10-31T01:46:12;9.30;99.90
16102;DHT22;56411;52.964;10.540;2022-10-31T01:48:40;9.40;99.90
16102;DHT22;56411;52.964;10.540;2022-10-31T01:51:09;9.40;99.90
16102;DHT22;56411;52.964;10.540;2022-10-31T01:53:39;9.40;99.90
16102;DHT22;56411;52.964;10.540;2022-10-31T01:56:07;9.40;99.90
16102;DHT22;56411;52.964;10.540;2022-10-31T01:58:35;9.40;99.90
16102;DHT22;56411;52.964;10.540;2022-10-31T02:01:03;9.40;99.90
16102;DHT22;56411;52.964;10.540;2022-10-31T02:03:31;9.40;99.90
16102;DHT22;56411;52.964;10.540;2022-10-31T02:05:58;9.50;99.90
16102;DHT22;56411;52.964;10.540;2022-10-31T02:08:27;9.50;99.90
16102;DHT22;56411;52.964;10.540;2022-10-31T02:10:57;9.90;99.90
16102;DHT22;56411;52.964;10.540;2022-10-31T02:13:25;10.20;99.90
16102;DHT22;56411;52.964;10.540;2022-10-31T02:15:54;10.60;99.90
16102;DHT22;56411;52.964;10.540;2022-10-31T02:18:22;10.90;99.90
16102;DHT22;56411;52.964;10.540;2022-10-31T02:20:58;11.00;99.90
16102;DHT22;56411;52.964;10.540;2022-10-31T02:26:57;11.00;99.90
16102;DHT22;56411;52.964;10.540;2022-10-31T02:30:06;11.10;99.90
16102;DHT22;56411;52.964;10.540;2022-10-31T02:32:53;11.20;99.90
16102;DHT22;56411;52.964;10.540;2022-10-31T02:35:32;11.30;99.90
16102;DHT22;56411;52.964;10.540;2022-10-31T02:38:04;11.40;99.90
16102;DHT22;56411;52.964;10.540;2022-10-31T02:40:35;11.40;99.90
16102;DHT22;56411;52.964;10.540;2022-10-31T02:43:09;11.60;99.90
16102;DHT22;56411;52.964;10.540;2022-10-31T02:45:43;11.60;99.90
16102;DHT22;56411;52.964;10.540;2022-10-31T02:48:17;11.60;99.90
16102;DHT22;56411;52.964;10.540;2022-10-31T02:50:50;11.70;99.90
16102;DHT22;56411;52.964;10.540;2022-10-31T02:53:19;11.80;99.90
16102;DHT22;56411;52.964;10.540;2022-10-31T02:55:58;11.80;99.90
16102;DHT22;56411;52.964;10.540;2022-10-31T02:58:29;11.80;99.90
16102;DHT22;56411;52.964;10.540;2022-10-31T03:04:12;11.70;99.90
16102;DHT22;56411;52.964;10.540;2022-10-31T03:06:47;11.60;99.90
16102;DHT22;56411;52.964;10.540;2022-10-31T03:09:22;11.70;99.90
16102;DHT22;56411;52.964;10.540;2022-10-31T03:11:57;11.70;99.90
16102;DHT22;56411;52.964;10.540;2022-10-31T03:14:28;11.70;99.90
16102;DHT22;56411;52.964;10.540;2022-10-31T03:16:59;11.70;99.90
16102;DHT22;56411;52.964;10.540;2022-10-31T03:19:33;11.70;99.90
16102;DHT22;56411;52.964;10.540;2022-10-31T03:22:03;11.70;99.90
16102;DHT22;56411;52.964;10.540;2022-10-31T03:24:37;11.70;99.90
16102;DHT22;56411;52.964;10.540;2022-10-31T03:27:06;11.70;99.90
16102;DHT22;56411;52.964;10.540;2022-10-31T03:29:36;11.80;99.90
16102;DHT22;56411;52.964;10.540;2022-10-31T03:32:06;11.80;99.90
16102;DHT22;56411;52.964;10.540;2022-10-31T03:34:37;11.80;99.90
16102;DHT22;56411;52.964;10.540;2022-10-31T03:37:07;11.80;99.90
16102;DHT22;56411;52.964;10.540;2022-10-31T03:39:37;11.80;99.90
16102;DHT22;56411;52.964;10.540;2022-10-31T03:42:07;11.70;99.90
16102;DHT22;56411;52.964;10.540;2022-10-31T03:44:35;11.80;99.90
16102;DHT22;56411;52.964;10.540;2022-10-31T03:47:05;11.80;99.90
16102;DHT22;56411;52.964;10.540;2022-10-31T03:49:33;11.70;99.90
16102;DHT22;56411;52.964;10.540;2022-10-31T03:52:07;11.80;99.90
16102;DHT22;56411;52.964;10.540;2022-10-31T03:54:42;11.80;99.90
16102;DHT22;56411;52.964;10.540;2022-10-31T03:57:14;11.80;99.90
16102;DHT22;56411;52.964;10.540;2022-10-31T03:59:45;11.90;99.90
16102;DHT22;56411;52.964;10.540;2022-10-31T04:02:15;11.90;99.90
16102;DHT22;56411;52.964;10.540;2022-10-31T04:04:44;11.90;99.90
16102;DHT22;56411;52.964;10.540;2022-10-31T04:07:13;11.90;99.90
16102;DHT22;56411;52.964;10.540;2022-10-31T04:09:44;12.00;99.90
16102;DHT22;56411;52.964;10.540;2022-10-31T04:12:14;12.00;99.90
16102;DHT22;56411;52.964;10.540;2022-10-31T04:14:43;12.00;99.90
16102;DHT22;56411;52.964;10.540;2022-10-31T04:17:16;12.10;99.90
16102;DHT22;56411;52.964;10.540;2022-10-31T04:19:44;12.10;99.90
16102;DHT22;56411;52.964;10.540;2022-10-31T04:22:10;12.10;99.90
16102;DHT22;56411;52.964;10.540;2022-10-31T04:24:40;12.10;99.90
16102;DHT22;56411;52.964;10.540;2022-10-31T04:27:07;12.10;99.90
16102;DHT22;56411;52.964;10.540;2022-10-31T04:29:34;12.10;99.90
16102;DHT22;56411;52.964;10.540;2022-10-31T04:32:01;12.10;99.90
16102;DHT22;56411;52.964;10.540;2022-10-31T04:34:28;12.10;99.90
16102;DHT22;56411;52.964;10.540;2022-10-31T04:36:55;12.20;99.90
16102;DHT22;56411;52.964;10.540;2022-10-31T04:39:22;12.20;99.90
16102;DHT22;56411;52.964;10.540;2022-10-31T04:41:50;12.20;99.90
16102;DHT22;56411;52.964;10.540;2022-10-31T04:44:17;12.20;99.90
16102;DHT22;56411;52.964;10.540;2022-10-31T04:46:44;12.20;99.90
16102;DHT22;56411;52.964;10.540;2022-10-31T04:49:11;12.10;99.90
16102;DHT22;56411;52.964;10.540;2022-10-31T04:51:40;12.10;99.90
16102;DHT22;56411;52.964;10.540;2022-10-31T04:54:07;12.10;99.90
16102;DHT22;56411;52.964;10.540;2022-10-31T04:56:34;12.00;99.90
16102;DHT22;56411;52.964;10.540;2022-10-31T04:59:02;12.10;99.90
16102;DHT22;56411;52.964;10.540;2022-10-31T05:01:29;12.10;99.90
16102;DHT22;56411;52.964;10.540;2022-10-31T05:03:56;12.10;99.90
16102;DHT22;56411;52.964;10.540;2022-10-31T05:06:23;12.10;99.90
16102;DHT22;56411;52.964;10.540;2022-10-31T05:08:50;12.10;99.90
16102;DHT22;56411;52.964;10.540;2022-10-31T05:11:17;12.10;99.90
16102;DHT22;56411;52.964;10.540;2022-10-31T05:13:44;12.10;99.90
16102;DHT22;56411;52.964;10.540;2022-10-31T05:16:13;12.10;99.90
16102;DHT22;56411;52.964;10.540;2022-10-31T05:18:40;12.10;99.90
16102;DHT22;56411;52.964;10.540;2022-10-31T05:21:06;12.10;99.90
16102;DHT22;56411;52.964;10.540;2022-10-31T05:23:33;12.20;99.90
16102;DHT22;56411;52.964;10.540;2022-10-31T05:26:00;12.20;99.90
16102;DHT22;56411;52.964;10.540;2022-10-31T05:28:27;12.20;99.90
16102;DHT22;56411;52.964;10.540;2022-10-31T05:30:54;12.20;99.90
16102;DHT22;56411;52.964;10.540;2022-10-31T05:33:22;12.20;99.90
16102;DHT22;56411;52.964;10.540;2022-10-31T05:35:49;12.20;99.90
16102;DHT22;56411;52.964;10.540;2022-10-31T05:38:16;12.20;99.90
16102;DHT22;56411;52.964;10.540;2022-10-31T05:40:43;12.20;99.90
16102;DHT22;56411;52.964;10.540;2022-10-31T05:43:10;12.20;99.90
16102;DHT22;56411;52.964;10.540;2022-10-31T05:45:37;12.20;99.90
16102;DHT22;56411;52.964;10.540;2022-10-31T05:48:04;12.20;99.90
16102;DHT22;56411;52.964;10.540;2022-10-31T05:50:33;12.20;99.90
16102;DHT22;56411;52.964;10.540;2022-10-31T05:53:01;12.30;99.90
16102;DHT22;56411;52.964;10.540;2022-10-31T05:55:28;12.30;99.90
16102;DHT22;56411;52.964;10.540;2022-10-31T05:57:55;12.30;99.90
16102;DHT22;56411;52.964;10.540;2022-10-31T06:00:23;12.30;99.90
16102;DHT22;56411;52.964;10.540;2022-10-31T06:02:58;12.30;99.90
16102;DHT22;56411;52.964;10.540;2022-10-31T06:05:25;12.30;99.90
16102;DHT22;56411;52.964;10.540;2022-10-31T06:07:53;12.30;99.90
16102;DHT22;56411;52.964;10.540;2022-10-31T06:10:20;12.30;99.90
16102;DHT22;56411;52.964;10.540;2022-10-31T06:12:47;12.40;99.90
16102;DHT22;56411;52.964;10.540;2022-10-31T06:15:15;12.40;99.90
16102;DHT22;56411;52.964;10.540;2022-10-31T06:17:42;12.40;99.90
16102;DHT22;56411;52.964;10.540;2022-10-31T06:20:09;12.40;99.90
16102;DHT22;56411;52.964;10.540;2022-10-31T06:22:36;12.40;99.90
16102;DHT22;56411;52.964;10.540;2022-10-31T06:25:05;12.40;99.90
16102;DHT22;56411;52.964;10.540;2022-10-31T06:27:32;12.40;99.90
16102;DHT22;56411;52.964;10.540;2022-10-31T06:29:59;12.30;99.90
16102;DHT22;56411;52.964;10.540;2022-10-31T06:32:26;12.30;99.90
16102;DHT22;56411;52.964;10.540;2022-10-31T06:34:53;12.40;99.90
16102;DHT22;56411;52.964;10.540;2022-10-31T06:37:19;12.40;99.90
16102;DHT22;56411;52.964;10.540;2022-10-31T06:39:47;12.40;99.90
16102;DHT22;56411;52.964;10.540;2022-10-31T06:42:16;12.40;99.90
16102;DHT22;56411;52.964;10.540;2022-10-31T06:44:43;12.40;99.90
16102;DHT22;56411;52.964;10.540;2022-10-31T06:47:10;12.40;99.90
16102;DHT22;56411;52.964;10.540;2022-10-31T06:49:37;12.50;99.90
16102;DHT22;56411;52.964;10.540;2022-10-31T06:52:05;12.50;99.90
16102;DHT22;56411;52.964;10.540;2022-10-31T06:54:31;12.50;99.90
16102;DHT22;56411;52.964;10.540;2022-10-31T06:56:58;12.60;99.90
16102;DHT22;56411;52.964;10.540;2022-10-31T06:59:27;12.60;99.90
16102;DHT22;56411;52.964;10.540;2022-10-31T07:01:53;12.70;99.90
16102;DHT22;56411;52.964;10.540;2022-10-31T07:04:20;12.60;99.90
16102;DHT22;56411;52.964;10.540;2022-10-31T07:06:50;12.70;99.90
16102;DHT22;56411;52.964;10.540;2022-10-31T07:09:17;12.70;99.90
16102;DHT22;56411;52.964;10.540;2022-10-31T07:11:45;12.70;99.90
16102;DHT22;56411;52.964;10.540;2022-10-31T07:14:12;12.80;99.90
16102;DHT22;56411;52.964;10.540;2022-10-31T07:16:40;12.80;99.90
16102;DHT22;56411;52.964;10.540;2022-10-31T07:19:07;12.80;99.90
16102;DHT22;56411;52.964;10.540;2022-10-31T07:21:34;12.80;99.90
16102;DHT22;56411;52.964;10.540;2022-10-31T07:24:04;12.80;99.90
16102;DHT22;56411;52.964;10.540;2022-10-31T07:26:31;12.90;99.90
16102;DHT22;56411;52.964;10.540;2022-10-31T07:28:58;12.90;99.90
16102;DHT22;56411;52.964;10.540;2022-10-31T07:31:26;12.90;99.90
16102;DHT22;56411;52.964;10.540;2022-10-31T07:33:54;13.00;99.90
16102;DHT22;56411;52.964;10.540;2022-10-31T07:36:21;13.00;99.90
16102;DHT22;56411;52.964;10.540;2022-10-31T07:38:48;13.00;99.90
16102;DHT22;56411;52.964;10.540;2022-10-31T07:41:15;12.90;99.90
16102;DHT22;56411;52.964;10.540;2022-10-31T07:43:45;13.00;99.90
16102;DHT22;56411;52.964;10.540;2022-10-31T07:46:11;13.00;99.90
16102;DHT22;56411;52.964;10.540;2022-10-31T07:48:39;13.00;99.90
16102;DHT22;56411;52.964;10.540;2022-10-31T07:51:08;13.00;99.90
16102;DHT22;56411;52.964;10.540;2022-10-31T07:53:34;13.10;99.90
16102;DHT22;56411;52.964;10.540;2022-10-31T07:56:01;13.10;99.90
16102;DHT22;56411;52.964;10.540;2022-10-31T07:58:31;13.10;99.90
16102;DHT22;56411;52.964;10.540;2022-10-31T08:00:58;13.10;99.90
16102;DHT22;56411;52.964;10.540;2022-10-31T08:03:25;13.10;99.90
16102;DHT22;56411;52.964;10.540;2022-10-31T08:05:52;13.10;99.90
16102;DHT22;56411;52.964;10.540;2022-10-31T08:08:20;13.10;99.90
16102;DHT22;56411;52.964;10.540;2022-10-31T08:10:47;13.10;99.90
16102;DHT22;56411;52.964;10.540;2022-10-31T08:13:14;13.20;99.90
16102;DHT22;56411;52.964;10.540;2022-10-31T08:15:41;13.20;99.90
16102;DHT22;56411;52.964;10.540;2022-10-31T08:18:12;13.20;99.90
16102;DHT22;56411;52.964;10.540;2022-10-31T08:20:40;13.20;99.90
16102;DHT22;56411;52.964;10.540;2022-10-31T08:23:07;13.20;99.90
16102;DHT22;56411;52.964;10.540;2022-10-31T08:25:37;13.30;99.90
16102;DHT22;56411;52.964;10.540;2022-10-31T08:28:04;13.40;99.90
16102;DHT22;56411;52.964;10.540;2022-10-31T08:30:33;13.50;99.90
16102;DHT22;56411;52.964;10.540;2022-10-31T08:33:01;13.60;99.90
16102;DHT22;56411;52.964;10.540;2022-10-31T08:35:28;13.60;99.90
16102;DHT22;56411;52.964;10.540;2022-10-31T08:37:56;13.60;99.90
16102;DHT22;56411;52.964;10.540;2022-10-31T08:40:23;13.50;99.90
16102;DHT22;56411;52.964;10.540;2022-10-31T08:42:58;13.50;99.90
16102;DHT22;56411;52.964;10.540;2022-10-31T08:45:25;13.60;99.90
16102;DHT22;56411;52.964;10.540;2022-10-31T08:47:56;13.60;99.90
16102;DHT22;56411;52.964;10.540;2022-10-31T08:50:24;13.80;99.90
16102;DHT22;56411;52.964;10.540;2022-10-31T08:52:51;13.80;99.90
16102;DHT22;56411;52.964;10.540;2022-10-31T08:55:18;13.80;99.90
16102;DHT22;56411;52.964;10.540;2022-10-31T08:57:45;13.80;99.90
16102;DHT22;56411;52.964;10.540;2022-10-31T09:00:14;13.70;99.90
16102;DHT22;56411;52.964;10.540;2022-10-31T09:02:40;13.60;99.90
16102;DHT22;56411;52.964;10.540;2022-10-31T09:05:08;13.70;99.90
16102;DHT22;56411;52.964;10.540;2022-10-31T09:07:35;13.80;99.90
16102;DHT22;56411;52.964;10.540;2022-10-31T09:10:02;13.80;99.90
16102;DHT22;56411;52.964;10.540;2022-10-31T09:12:29;13.90;99.90
16102;DHT22;56411;52.964;10.540;2022-10-31T09:14:56;13.90;99.90
16102;DHT22;56411;52.964;10.540;2022-10-31T09:17:24;14.00;99.90
16102;DHT22;56411;52.964;10.540;2022-10-31T09:19:52;14.10;99.90
16102;DHT22;56411;52.964;10.540;2022-10-31T09:22:19;14.10;99.90
16102;DHT22;56411;52.964;10.540;2022-10-31T09:24:46;14.10;99.90
16102;DHT22;56411;52.964;10.540;2022-10-31T09:27:12;14.20;99.90
16102;DHT22;56411;52.964;10.540;2022-10-31T09:29:39;14.30;99.90
16102;DHT22;56411;52.964;10.540;2022-10-31T09:32:06;14.30;99.90
16102;DHT22;56411;52.964;10.540;2022-10-31T09:34:35;14.30;99.90
16102;DHT22;56411;52.964;10.540;2022-10-31T09:37:02;14.30;99.90
16102;DHT22;56411;52.964;10.540;2022-10-31T09:39:29;14.30;99.90
16102;DHT22;56411;52.964;10.540;2022-10-31T09:42:04;14.40;99.90
16102;DHT22;56411;52.964;10.540;2022-10-31T09:44:41;14.40;99.90
16102;DHT22;56411;52.964;10.540;2022-10-31T09:47:14;14.40;99.90
16102;DHT22;56411;52.964;10.540;2022-10-31T09:49:57;14.70;99.90
16102;DHT22;56411;52.964;10.540;2022-10-31T09:52:29;14.90;99.90
16102;DHT22;56411;52.964;10.540;2022-10-31T09:55:02;15.10;99.90
16102;DHT22;56411;52.964;10.540;2022-10-31T09:57:33;15.30;99.90
16102;DHT22;56411;52.964;10.540;2022-10-31T10:00:01;15.50;99.90
16102;DHT22;56411;52.964;10.540;2022-10-31T10:02:34;15.60;99.90
16102;DHT22;56411;52.964;10.540;2022-10-31T10:05:11;15.80;99.90
16102;DHT22;56411;52.964;10.540;2022-10-31T10:07:46;15.80;99.90
16102;DHT22;56411;52.964;10.540;2022-10-31T10:10:17;15.90;99.90
16102;DHT22;56411;52.964;10.540;2022-10-31T10:13:11;15.80;99.90
16102;DHT22;56411;52.964;10.540;2022-10-31T10:15:55;15.90;99.90
16102;DHT22;56411;52.964;10.540;2022-10-31T10:18:30;15.90;99.90
16102;DHT22;56411;52.964;10.540;2022-10-31T10:21:17;15.60;99.90
16102;DHT22;56411;52.964;10.540;2022-10-31T10:23:56;15.30;99.90
16102;DHT22;56411;52.964;10.540;2022-10-31T10:26:30;15.30;99.90
16102;DHT22;56411;52.964;10.540;2022-10-31T10:29:07;15.60;99.90
16102;DHT22;56411;52.964;10.540;2022-10-31T10:31:41;15.30;99.90
16102;DHT22;56411;52.964;10.540;2022-10-31T10:34:18;15.20;99.90
16102;DHT22;56411;52.964;10.540;2022-10-31T10:36:52;15.30;99.90
16102;DHT22;56411;52.964;10.540;2022-10-31T10:39:23;15.40;99.90
16102;DHT22;56411;52.964;10.540;2022-10-31T10:41:52;15.50;99.90
16102;DHT22;56411;52.964;10.540;2022-10-31T10:44:37;15.40;99.90
16102;DHT22;56411;52.964;10.540;2022-10-31T10:47:22;15.30;99.90
16102;DHT22;56411;52.964;10.540;2022-10-31T10:50:10;15.10;99.90
16102;DHT22;56411;52.964;10.540;2022-10-31T10:52:46;15.00;99.90
16102;DHT22;56411;52.964;10.540;2022-10-31T10:55:22;14.90;99.90
16102;DHT22;56411;52.964;10.540;2022-10-31T10:57:56;14.60;99.90
16102;DHT22;56411;52.964;10.540;2022-10-31T11:00:24;14.60;99.90
16102;DHT22;56411;52.964;10.540;2022-10-31T11:02:52;14.70;99.90
16102;DHT22;56411;52.964;10.540;2022-10-31T11:05:35;14.70;99.90
16102;DHT22;56411;52.964;10.540;2022-10-31T11:08:05;14.60;99.90
16102;DHT22;56411;52.964;10.540;2022-10-31T11:10:32;14.70;99.90
16102;DHT22;56411;52.964;10.540;2022-10-31T11:13:21;14.80;99.90
16102;DHT22;56411;52.964;10.540;2022-10-31T11:15:58;14.70;99.90
16102;DHT22;56411;52.964;10.540;2022-10-31T11:18:28;14.70;99.90
16102;DHT22;56411;52.964;10.540;2022-10-31T11:20:57;14.80;99.90
16102;DHT22;56411;52.964;10.540;2022-10-31T11:23:27;14.90;99.90
16102;DHT22;56411;52.964;10.540;2022-10-31T11:25:58;15.00;99.90
16102;DHT22;56411;52.964;10.540;2022-10-31T11:28:25;15.20;99.90
16102;DHT22;56411;52.964;10.540;2022-10-31T11:30:56;15.30;99.90
16102;DHT22;56411;52.964;10.540;2022-10-31T11:33:27;15.50;99.90
16102;DHT22;56411;52.964;10.540;2022-10-31T11:35:55;15.70;99.90
16102;DHT22;56411;52.964;10.540;2022-10-31T11:38:26;16.00;99.90
16102;DHT22;56411;52.964;10.540;2022-10-31T11:40:59;16.50;99.90
16102;DHT22;56411;52.964;10.540;2022-10-31T11:43:27;17.30;99.90
16102;DHT22;56411;52.964;10.540;2022-10-31T11:45:54;17.70;99.90
16102;DHT22;56411;52.964;10.540;2022-10-31T11:48:23;18.20;99.90
16102;DHT22;56411;52.964;10.540;2022-10-31T11:50:52;18.30;99.90
16102;DHT22;56411;52.964;10.540;2022-10-31T11:53:27;18.40;99.90
16102;DHT22;56411;52.964;10.540;2022-10-31T11:56:10;18.50;99.90
16102;DHT22;56411;52.964;10.540;2022-10-31T11:58:38;18.60;99.90
16102;DHT22;56411;52.964;10.540;2022-10-31T12:01:08;18.60;99.90
16102;DHT22;56411;52.964;10.540;2022-10-31T12:03:54;18.20;99.90
16102;DHT22;56411;52.964;10.540;2022-10-31T12:06:24;18.00;99.90
16102;DHT22;56411;52.964;10.540;2022-10-31T12:08:57;17.70;99.90
16102;DHT22;56411;52.964;10.540;2022-10-31T12:11:34;17.40;99.90
16102;DHT22;56411;52.964;10.540;2022-10-31T12:14:12;16.90;99.90
16102;DHT22;56411;52.964;10.540;2022-10-31T12:16:48;16.70;99.90
16102;DHT22;56411;52.964;10.540;2022-10-31T12:19:24;16.50;99.90
16102;DHT22;56411;52.964;10.540;2022-10-31T12:22:08;16.40;99.90
16102;DHT22;56411;52.964;10.540;2022-10-31T12:24:52;16.30;99.90
16102;DHT22;56411;52.964;10.540;2022-10-31T12:27:29;16.30;99.90
16102;DHT22;56411;52.964;10.540;2022-10-31T12:30:17;16.30;99.90
16102;DHT22;56411;52.964;10.540;2022-10-31T12:33:06;16.20;99.90
16102;DHT22;56411;52.964;10.540;2022-10-31T12:35:44;16.20;99.90
16102;DHT22;56411;52.964;10.540;2022-10-31T12:38:31;16.20;99.90
16102;DHT22;56411;52.964;10.540;2022-10-31T12:41:14;16.30;99.90
16102;DHT22;56411;52.964;10.540;2022-10-31T12:43:48;16.30;99.90
16102;DHT22;56411;52.964;10.540;2022-10-31T12:46:25;16.40;99.90
16102;DHT22;56411;52.964;10.540;2022-10-31T12:51:53;16.50;99.90
16102;DHT22;56411;52.964;10.540;2022-10-31T12:54:41;16.40;99.90
16102;DHT22;56411;52.964;10.540;2022-10-31T12:57:22;16.50;99.90
16102;DHT22;56411;52.964;10.540;2022-10-31T12:59:52;16.30;99.90
16102;DHT22;56411;52.964;10.540;2022-10-31T13:02:22;16.40;99.90
16102;DHT22;56411;52.964;10.540;2022-10-31T13:04:54;16.50;99.90
16102;DHT22;56411;52.964;10.540;2022-10-31T13:07:27;16.80;99.90
16102;DHT22;56411;52.964;10.540;2022-10-31T13:09:59;17.10;99.90
16102;DHT22;56411;52.964;10.540;2022-10-31T13:12:31;16.80;99.90
16102;DHT22;56411;52.964;10.540;2022-10-31T13:15:03;16.80;99.90
16102;DHT22;56411;52.964;10.540;2022-10-31T13:17:37;17.00;99.90
16102;DHT22;56411;52.964;10.540;2022-10-31T13:20:20;17.20;99.90
16102;DHT22;56411;52.964;10.540;2022-10-31T13:22:51;17.40;99.90
16102;DHT22;56411;52.964;10.540;2022-10-31T13:25:23;17.70;99.90
16102;DHT22;56411;52.964;10.540;2022-10-31T13:27:58;18.20;99.90
16102;DHT22;56411;52.964;10.540;2022-10-31T13:30:28;18.70;99.90
16102;DHT22;56411;52.964;10.540;2022-10-31T13:33:00;19.20;99.90
16102;DHT22;56411;52.964;10.540;2022-10-31T13:35:35;19.70;99.90
16102;DHT22;56411;52.964;10.540;2022-10-31T13:38:15;19.60;99.90
16102;DHT22;56411;52.964;10.540;2022-10-31T13:40:50;19.80;99.90
16102;DHT22;56411;52.964;10.540;2022-10-31T13:43:29;19.50;99.90
16102;DHT22;56411;52.964;10.540;2022-10-31T13:45:58;19.20;99.90
16102;DHT22;56411;52.964;10.540;2022-10-31T13:48:40;19.10;99.90
16102;DHT22;56411;52.964;10.540;2022-10-31T13:51:10;19.00;99.90
16102;DHT22;56411;52.964;10.540;2022-10-31T13:53:43;19.20;99.90
16102;DHT22;56411;52.964;10.540;2022-10-31T13:56:19;18.80;99.90
16102;DHT22;56411;52.964;10.540;2022-10-31T13:59:20;18.90;99.90
16102;DHT22;56411;52.964;10.540;2022-10-31T14:01:51;18.70;99.90
16102;DHT22;56411;52.964;10.540;2022-10-31T14:04:21;18.60;99.90
16102;DHT22;56411;52.964;10.540;2022-10-31T14:06:55;18.30;99.90
16102;DHT22;56411;52.964;10.540;2022-10-31T14:09:31;18.40;99.90
16102;DHT22;56411;52.964;10.540;2022-10-31T14:12:03;18.00;99.90
16102;DHT22;56411;52.964;10.540;2022-10-31T14:14:45;17.80;99.90
16102;DHT22;56411;52.964;10.540;2022-10-31T14:17:25;17.80;99.90
16102;DHT22;56411;52.964;10.540;2022-10-31T14:19:59;17.60;99.90
16102;DHT22;56411;52.964;10.540;2022-10-31T14:22:30;17.30;99.90
16102;DHT22;56411;52.964;10.540;2022-10-31T14:24:59;17.20;99.90
16102;DHT22;56411;52.964;10.540;2022-10-31T14:27:46;17.00;99.90
16102;DHT22;56411;52.964;10.540;2022-10-31T14:30:18;16.80;99.90
16102;DHT22;56411;52.964;10.540;2022-10-31T14:32:50;16.60;99.90
16102;DHT22;56411;52.964;10.540;2022-10-31T14:35:18;16.40;99.90
16102;DHT22;56411;52.964;10.540;2022-10-31T14:38:11;16.20;99.90
16102;DHT22;56411;52.964;10.540;2022-10-31T14:40:50;16.00;99.90
16102;DHT22;56411;52.964;10.540;2022-10-31T14:43:31;15.70;99.90
16102;DHT22;56411;52.964;10.540;2022-10-31T14:46:06;15.50;99.90
16102;DHT22;56411;52.964;10.540;2022-10-31T14:49:11;15.40;99.90
16102;DHT22;56411;52.964;10.540;2022-10-31T14:51:43;15.40;99.90
16102;DHT22;56411;52.964;10.540;2022-10-31T14:54:12;15.30;99.90
16102;DHT22;56411;52.964;10.540;2022-10-31T14:56:47;15.30;99.90
16102;DHT22;56411;52.964;10.540;2022-10-31T14:59:18;15.20;99.90
16102;DHT22;56411;52.964;10.540;2022-10-31T15:01:54;15.10;99.90
16102;DHT22;56411;52.964;10.540;2022-10-31T15:04:24;15.00;99.90
16102;DHT22;56411;52.964;10.540;2022-10-31T15:06:58;14.90;99.90
16102;DHT22;56411;52.964;10.540;2022-10-31T15:09:28;14.80;99.90
16102;DHT22;56411;52.964;10.540;2022-10-31T15:11:55;14.60;99.90
16102;DHT22;56411;52.964;10.540;2022-10-31T15:14:27;14.60;99.90
16102;DHT22;56411;52.964;10.540;2022-10-31T15:16:57;14.50;99.90
16102;DHT22;56411;52.964;10.540;2022-10-31T15:19:26;14.40;99.90
16102;DHT22;56411;52.964;10.540;2022-10-31T15:21:55;14.30;99.90
16102;DHT22;56411;52.964;10.540;2022-10-31T15:24:24;14.20;99.90
16102;DHT22;56411;52.964;10.540;2022-10-31T15:26:52;14.10;99.90
16102;DHT22;56411;52.964;10.540;2022-10-31T15:29:22;14.00;99.90
16102;DHT22;56411;52.964;10.540;2022-10-31T15:31:50;13.90;99.90
16102;DHT22;56411;52.964;10.540;2022-10-31T15:34:22;13.70;99.90
16102;DHT22;56411;52.964;10.540;2022-10-31T15:36:51;13.60;99.90
16102;DHT22;56411;52.964;10.540;2022-10-31T15:39:18;13.60;99.90
16102;DHT22;56411;52.964;10.540;2022-10-31T15:41:49;13.50;99.90
16102;DHT22;56411;52.964;10.540;2022-10-31T15:44:30;13.30;99.90
16102;DHT22;56411;52.964;10.540;2022-10-31T15:46:59;13.20;99.90
16102;DHT22;56411;52.964;10.540;2022-10-31T15:49:32;13.10;99.90